Terminal Aerodrome Forecast
Issued by NWS Boston, MA

Current Version | Previous Version | Text Only | Print | Product List | Glossary On
Versions: 1 2 3 4 5 6 7 8 9 10 11 12 13 14 15 16 17 18 19 20 21 22 23 24 25 26 27 28 29 30 31 32 33 34 35 36 37 38 39 40 41 42 43 44 45 46 47 48 49 50
000
FTUS41 KBOX 011728
TAFBOS
TAF
KBOS 011728Z 0118/0224 29011KT P6SM FEW040
     FM012300 31008KT P6SM SCT040 BKN110
     FM020300 35006KT P6SM SCT040 BKN080
     FM020700 02006KT 2SM -SN OVC040
     FM021000 05013KT 1SM -SN OVC015
     FM021200 09016KT 1/4SM +SN OVC010
     FM021800 05024G32KT 1/2SM SN OVC008=

USA.gov is the U.S. government's official web portal to all federal, state and local government web resources and services.